sensor_id;sensor_type;location;lat;lon;timestamp;pressure;altitude;pressure_sealevel;temperature;humidity
11830;BME280;5972;42.134;24.718;2024-01-15T00:00:01;99251.88;;;-1.22;100.00
11830;BME280;5972;42.134;24.718;2024-01-15T00:02:29;99309.06;;;-0.86;100.00
11830;BME280;5972;42.134;24.718;2024-01-15T00:04:56;99309.84;;;-0.85;100.00
11830;BME280;5972;42.134;24.718;2024-01-15T00:07:23;99301.91;;;-0.90;100.00
11830;BME280;5972;42.134;24.718;2024-01-15T00:09:50;99304.59;;;-0.95;100.00
11830;BME280;5972;42.134;24.718;2024-01-15T00:12:17;99296.91;;;-1.02;100.00
11830;BME280;5972;42.134;24.718;2024-01-15T00:14:44;99283.41;;;-1.10;100.00
11830;BME280;5972;42.134;24.718;2024-01-15T00:17:12;99297.44;;;-1.05;100.00
11830;BME280;5972;42.134;24.718;2024-01-15T00:19:39;99295.84;;;-1.06;100.00
11830;BME280;5972;42.134;24.718;2024-01-15T00:22:06;99298.03;;;-1.13;100.00
11830;BME280;5972;42.134;24.718;2024-01-15T00:24:33;99296.44;;;-1.14;100.00
11830;BME280;5972;42.134;24.718;2024-01-15T00:27:00;99290.66;;;-1.26;100.00
11830;BME280;5972;42.134;24.718;2024-01-15T00:29:27;99288.53;;;-1.24;100.00
11830;BME280;5972;42.134;24.718;2024-01-15T00:31:54;99300.19;;;-1.20;100.00
11830;BME280;5972;42.134;24.718;2024-01-15T00:34:22;99297.53;;;-1.20;100.00
11830;BME280;5972;42.134;24.718;2024-01-15T00:36:50;99279.28;;;-1.37;100.00
11830;BME280;5972;42.134;24.718;2024-01-15T00:39:17;99275.53;;;-1.31;100.00
11830;BME280;5972;42.134;24.718;2024-01-15T00:41:44;99273.63;;;-1.20;100.00
11830;BME280;5972;42.134;24.718;2024-01-15T00:44:11;99289.78;;;-1.11;100.00
11830;BME280;5972;42.134;24.718;2024-01-15T00:46:43;99285.06;;;-1.19;100.00
11830;BME280;5972;42.134;24.718;2024-01-15T00:49:10;99287.69;;;-1.19;100.00
11830;BME280;5972;42.134;24.718;2024-01-15T00:51:39;99280.81;;;-1.20;100.00
11830;BME280;5972;42.134;24.718;2024-01-15T00:54:06;99287.41;;;-1.13;100.00
11830;BME280;5972;42.134;24.718;2024-01-15T00:56:33;99263.00;;;-1.15;100.00
11830;BME280;5972;42.134;24.718;2024-01-15T00:59:00;99276.50;;;-1.11;100.00
11830;BME280;5972;42.134;24.718;2024-01-15T01:01:27;99264.06;;;-1.21;100.00
11830;BME280;5972;42.134;24.718;2024-01-15T01:03:55;99273.06;;;-1.17;100.00
11830;BME280;5972;42.134;24.718;2024-01-15T01:06:22;99277.06;;;-1.14;100.00
11830;BME280;5972;42.134;24.718;2024-01-15T01:08:50;99273.06;;;-1.17;100.00
11830;BME280;5972;42.134;24.718;2024-01-15T01:11:17;99272.84;;;-1.20;100.00
11830;BME280;5972;42.134;24.718;2024-01-15T01:13:44;99267.28;;;-1.24;100.00
11830;BME280;5972;42.134;24.718;2024-01-15T01:16:11;99253.56;;;-1.41;100.00
11830;BME280;5972;42.134;24.718;2024-01-15T01:18:38;99259.38;;;-1.34;100.00
11830;BME280;5972;42.134;24.718;2024-01-15T01:21:05;99238.97;;;-1.49;100.00
11830;BME280;5972;42.134;24.718;2024-01-15T01:23:32;99264.66;;;-1.29;100.00
11830;BME280;5972;42.134;24.718;2024-01-15T01:26:00;99269.69;;;-1.33;100.00
11830;BME280;5972;42.134;24.718;2024-01-15T01:28:28;99269.69;;;-1.33;100.00
11830;BME280;5972;42.134;24.718;2024-01-15T01:30:55;99274.22;;;-1.38;100.00
11830;BME280;5972;42.134;24.718;2024-01-15T01:33:22;99263.13;;;-1.45;100.00
11830;BME280;5972;42.134;24.718;2024-01-15T01:35:49;99261.59;;;-1.72;100.00
11830;BME280;5972;42.134;24.718;2024-01-15T01:38:16;99258.41;;;-1.58;100.00
11830;BME280;5972;42.134;24.718;2024-01-15T01:40:43;99244.31;;;-1.54;100.00
11830;BME280;5972;42.134;24.718;2024-01-15T01:43:11;99250.47;;;-1.63;100.00
11830;BME280;5972;42.134;24.718;2024-01-15T01:45:38;99248.88;;;-1.64;100.00
11830;BME280;5972;42.134;24.718;2024-01-15T01:48:05;99256.06;;;-1.75;100.00
11830;BME280;5972;42.134;24.718;2024-01-15T01:50:33;99245.47;;;-1.80;100.00
11830;BME280;5972;42.134;24.718;2024-01-15T01:53:01;99253.91;;;-1.68;100.00
11830;BME280;5972;42.134;24.718;2024-01-15T01:55:31;99225.59;;;-1.88;100.00
11830;BME280;5972;42.134;24.718;2024-01-15T01:57:59;99255.25;;;-1.76;100.00
11830;BME280;5972;42.134;24.718;2024-01-15T02:00:29;99234.56;;;-1.84;100.00
11830;BME280;5972;42.134;24.718;2024-01-15T02:02:57;99251.03;;;-1.82;100.00
11830;BME280;5972;42.134;24.718;2024-01-15T02:05:24;99238.03;;;-1.88;100.00
11830;BME280;5972;42.134;24.718;2024-01-15T02:07:51;99213.19;;;-2.07;100.00
11830;BME280;5972;42.134;24.718;2024-01-15T02:10:18;99230.94;;;-2.03;100.00
11830;BME280;5972;42.134;24.718;2024-01-15T02:12:45;99235.97;;;-1.96;100.00
11830;BME280;5972;42.134;24.718;2024-01-15T02:15:14;99247.63;;;-1.97;100.00
11830;BME280;5972;42.134;24.718;2024-01-15T02:18:02;99255.31;;;-1.96;100.00
11830;BME280;5972;42.134;24.718;2024-01-15T02:20:29;99233.56;;;-2.03;100.00
11830;BME280;5972;42.134;24.718;2024-01-15T02:23:07;99222.19;;;-2.08;100.00
11830;BME280;5972;42.134;24.718;2024-01-15T02:25:36;99251.31;;;-1.88;100.00
11830;BME280;5972;42.134;24.718;2024-01-15T02:28:04;99243.63;;;-1.90;100.00
11830;BME280;5972;42.134;24.718;2024-01-15T02:30:32;99210.78;;;-2.09;100.00
11830;BME280;5972;42.134;24.718;2024-01-15T02:33:01;99246.00;;;-1.93;100.00
11830;BME280;5972;42.134;24.718;2024-01-15T02:35:28;99247.34;;;-1.96;100.00
11830;BME280;5972;42.134;24.718;2024-01-15T02:37:55;99245.78;;;-2.02;100.00
11830;BME280;5972;42.134;24.718;2024-01-15T02:40:23;99255.56;;;-1.97;100.00
11830;BME280;5972;42.134;24.718;2024-01-15T02:42:50;99239.41;;;-2.11;100.00
11830;BME280;5972;42.134;24.718;2024-01-15T02:45:17;99220.63;;;-2.30;100.00
11830;BME280;5972;42.134;24.718;2024-01-15T02:47:44;99242.34;;;-2.18;100.00
11830;BME280;5972;42.134;24.718;2024-01-15T02:50:11;99256.13;;;-2.16;100.00
11830;BME280;5972;42.134;24.718;2024-01-15T02:52:38;99247.91;;;-2.14;100.00
11830;BME280;5972;42.134;24.718;2024-01-15T02:55:06;99225.94;;;-2.25;100.00
11830;BME280;5972;42.134;24.718;2024-01-15T02:57:34;99242.63;;;-2.19;100.00
11830;BME280;5972;42.134;24.718;2024-01-15T03:00:02;99241.56;;;-2.18;100.00
11830;BME280;5972;42.134;24.718;2024-01-15T03:02:29;99228.31;;;-2.18;100.00
11830;BME280;5972;42.134;24.718;2024-01-15T03:04:57;99228.84;;;-2.21;100.00
11830;BME280;5972;42.134;24.718;2024-01-15T03:07:24;99234.13;;;-2.16;100.00
11830;BME280;5972;42.134;24.718;2024-01-15T03:09:51;99232.03;;;-2.19;100.00
11830;BME280;5972;42.134;24.718;2024-01-15T03:12:18;99207.41;;;-2.40;100.00
11830;BME280;5972;42.134;24.718;2024-01-15T03:14:46;99236.53;;;-2.25;100.00
11830;BME280;5972;42.134;24.718;2024-01-15T03:17:13;99231.75;;;-2.23;100.00
11830;BME280;5972;42.134;24.718;2024-01-15T03:19:40;99233.63;;;-2.23;100.00
11830;BME280;5972;42.134;24.718;2024-01-15T03:22:07;99206.06;;;-2.42;100.00
11830;BME280;5972;42.134;24.718;2024-01-15T03:24:34;99234.94;;;-2.26;100.00
11830;BME280;5972;42.134;24.718;2024-01-15T03:27:01;99234.38;;;-2.23;100.00
11830;BME280;5972;42.134;24.718;2024-01-15T03:29:28;99207.91;;;-2.43;100.00
11830;BME280;5972;42.134;24.718;2024-01-15T03:31:56;99220.09;;;-2.32;100.00
11830;BME280;5972;42.134;24.718;2024-01-15T03:34:23;99217.19;;;-2.30;100.00
11830;BME280;5972;42.134;24.718;2024-01-15T03:36:50;99208.19;;;-2.34;100.00
11830;BME280;5972;42.134;24.718;2024-01-15T03:39:17;99199.44;;;-2.35;100.00
11830;BME280;5972;42.134;24.718;2024-01-15T03:41:44;99211.09;;;-2.31;100.00
11830;BME280;5972;42.134;24.718;2024-01-15T03:44:11;99220.09;;;-2.37;100.00
11830;BME280;5972;42.134;24.718;2024-01-15T03:46:38;99231.75;;;-2.28;100.00
11830;BME280;5972;42.134;24.718;2024-01-15T03:49:07;99242.34;;;-2.28;100.00
11830;BME280;5972;42.134;24.718;2024-01-15T03:51:34;99236.53;;;-2.35;100.00
11830;BME280;5972;42.134;24.718;2024-01-15T03:54:01;99225.66;;;-2.33;100.00
11830;BME280;5972;42.134;24.718;2024-01-15T03:56:28;99202.91;;;-2.60;100.00
11830;BME280;5972;42.134;24.718;2024-01-15T03:58:55;99225.16;;;-2.35;100.00
11830;BME280;5972;42.134;24.718;2024-01-15T04:01:22;99235.75;;;-2.35;100.00
11830;BME280;5972;42.134;24.718;2024-01-15T04:03:49;99225.16;;;-2.40;100.00
11830;BME280;5972;42.134;24.718;2024-01-15T04:06:17;99226.47;;;-2.43;100.00
11830;BME280;5972;42.134;24.718;2024-01-15T04:08:46;99223.56;;;-2.52;100.00
11830;BME280;5972;42.134;24.718;2024-01-15T04:11:13;99220.91;;;-2.41;100.00
11830;BME280;5972;42.134;24.718;2024-01-15T04:13:40;99217.47;;;-2.42;100.00
11830;BME280;5972;42.134;24.718;2024-01-15T04:16:07;99206.88;;;-2.47;100.00
11830;BME280;5972;42.134;24.718;2024-01-15T04:18:34;99224.06;;;-2.44;100.00
11830;BME280;5972;42.134;24.718;2024-01-15T04:21:01;99215.06;;;-2.48;100.00
11830;BME280;5972;42.134;24.718;2024-01-15T04:23:31;99215.88;;;-2.43;100.00
11830;BME280;5972;42.134;24.718;2024-01-15T04:25:58;99216.13;;;-2.39;100.00
11830;BME280;5972;42.134;24.718;2024-01-15T04:28:25;99201.81;;;-2.28;100.00
11830;BME280;5972;42.134;24.718;2024-01-15T04:30:52;99196.81;;;-2.35;100.00
11830;BME280;5972;42.134;24.718;2024-01-15T04:33:20;99197.31;;;-2.38;100.00
11830;BME280;5972;42.134;24.718;2024-01-15T04:35:47;99179.84;;;-2.59;100.00
11830;BME280;5972;42.134;24.718;2024-01-15T04:38:14;99204.47;;;-2.38;100.00
11830;BME280;5972;42.134;24.718;2024-01-15T04:40:43;99179.34;;;-2.51;100.00
11830;BME280;5972;42.134;24.718;2024-01-15T04:43:16;99195.47;;;-2.47;100.00
11830;BME280;5972;42.134;24.718;2024-01-15T04:45:43;99189.91;;;-2.66;100.00
11830;BME280;5972;42.134;24.718;2024-01-15T04:48:10;99190.72;;;-2.76;100.00
11830;BME280;5972;42.134;24.718;2024-01-15T04:50:37;99171.66;;;-2.93;100.00
11830;BME280;5972;42.134;24.718;2024-01-15T04:53:04;99193.63;;;-2.77;100.00
11830;BME280;5972;42.134;24.718;2024-01-15T04:55:31;99203.94;;;-2.61;100.00
11830;BME280;5972;42.134;24.718;2024-01-15T04:57:59;99196.53;;;-2.59;100.00
11830;BME280;5972;42.134;24.718;2024-01-15T05:00:26;99190.44;;;-2.59;100.00
11830;BME280;5972;42.134;24.718;2024-01-15T05:02:56;99191.78;;;-2.52;100.00
11830;BME280;5972;42.134;24.718;2024-01-15T05:05:23;99196.00;;;-2.61;100.00
11830;BME280;5972;42.134;24.718;2024-01-15T05:07:50;99184.09;;;-2.63;100.00
11830;BME280;5972;42.134;24.718;2024-01-15T05:10:17;99163.69;;;-2.73;100.00
11830;BME280;5972;42.134;24.718;2024-01-15T05:12:44;99154.16;;;-2.84;100.00
11830;BME280;5972;42.134;24.718;2024-01-15T05:15:12;99146.25;;;-2.79;100.00
11830;BME280;5972;42.134;24.718;2024-01-15T05:17:39;99169.25;;;-2.59;100.00
11830;BME280;5972;42.134;24.718;2024-01-15T05:20:07;99161.06;;;-2.58;100.00
11830;BME280;5972;42.134;24.718;2024-01-15T05:22:35;99159.47;;;-2.54;100.00
11830;BME280;5972;42.134;24.718;2024-01-15T05:25:02;99159.19;;;-2.52;100.00
11830;BME280;5972;42.134;24.718;2024-01-15T05:27:29;99155.22;;;-2.49;100.00
11830;BME280;5972;42.134;24.718;2024-01-15T05:29:57;99147.00;;;-2.53;100.00
11830;BME280;5972;42.134;24.718;2024-01-15T05:32:26;99143.81;;;-2.50;100.00
11830;BME280;5972;42.134;24.718;2024-01-15T05:34:52;99148.59;;;-2.47;100.00
11830;BME280;5972;42.134;24.718;2024-01-15T05:37:19;99138.81;;;-2.57;100.00
11830;BME280;5972;42.134;24.718;2024-01-15T05:39:46;99120.81;;;-2.65;100.00
11830;BME280;5972;42.134;24.718;2024-01-15T05:42:13;99117.09;;;-2.54;100.00
11830;BME280;5972;42.134;24.718;2024-01-15T05:44:40;99156.28;;;-2.45;100.00
11830;BME280;5972;42.134;24.718;2024-01-15T05:47:07;99157.06;;;-2.60;100.00
11830;BME280;5972;42.134;24.718;2024-01-15T05:49:37;99158.94;;;-2.66;100.00
11830;BME280;5972;42.134;24.718;2024-01-15T05:52:04;99165.84;;;-2.70;100.00
11830;BME280;5972;42.134;24.718;2024-01-15T05:54:31;99178.00;;;-2.48;100.00
11830;BME280;5972;42.134;24.718;2024-01-15T05:56:58;99184.38;;;-2.65;100.00
11830;BME280;5972;42.134;24.718;2024-01-15T05:59:25;99154.97;;;-2.78;100.00
11830;BME280;5972;42.134;24.718;2024-01-15T06:01:54;99185.66;;;-2.67;100.00
11830;BME280;5972;42.134;24.718;2024-01-15T06:04:21;99178.81;;;-2.68;100.00
11830;BME280;5972;42.134;24.718;2024-01-15T06:06:49;99163.16;;;-2.60;100.00
11830;BME280;5972;42.134;24.718;2024-01-15T06:09:16;99158.66;;;-2.59;100.00
11830;BME280;5972;42.134;24.718;2024-01-15T06:11:43;99156.28;;;-2.61;100.00
11830;BME280;5972;42.134;24.718;2024-01-15T06:14:10;99144.38;;;-2.68;100.00
11830;BME280;5972;42.134;24.718;2024-01-15T06:16:37;99157.34;;;-2.57;100.00
11830;BME280;5972;42.134;24.718;2024-01-15T06:19:04;99170.84;;;-2.48;100.00
11830;BME280;5972;42.134;24.718;2024-01-15T06:21:31;99181.44;;;-2.43;100.00
11830;BME280;5972;42.134;24.718;2024-01-15T06:24:00;99189.88;;;-2.26;100.00
11830;BME280;5972;42.134;24.718;2024-01-15T06:26:27;99187.75;;;-2.19;100.00
11830;BME280;5972;42.134;24.718;2024-01-15T06:28:54;99191.47;;;-2.20;100.00
11830;BME280;5972;42.134;24.718;2024-01-15T06:31:21;99187.47;;;-2.22;100.00
11830;BME280;5972;42.134;24.718;2024-01-15T06:33:48;99148.84;;;-2.48;100.00
11830;BME280;5972;42.134;24.718;2024-01-15T06:36:16;99190.13;;;-2.07;100.00
11830;BME280;5972;42.134;24.718;2024-01-15T06:38:43;99184.03;;;-2.13;100.00
11830;BME280;5972;42.134;24.718;2024-01-15T06:41:12;99170.53;;;-2.21;100.00
11830;BME280;5972;42.134;24.718;2024-01-15T06:43:39;99192.22;;;-2.04;100.00
11830;BME280;5972;42.134;24.718;2024-01-15T06:46:19;99135.59;;;-2.38;100.00
11830;BME280;5972;42.134;24.718;2024-01-15T06:48:54;99182.97;;;-2.06;100.00
11830;BME280;5972;42.134;24.718;2024-01-15T06:51:21;99159.13;;;-2.22;100.00
11830;BME280;5972;42.134;24.718;2024-01-15T06:53:48;99178.69;;;-1.97;100.00
11830;BME280;5972;42.134;24.718;2024-01-15T06:56:17;99122.88;;;-2.31;100.00
11830;BME280;5972;42.134;24.718;2024-01-15T06:58:44;98996.41;;;-2.95;100.00
11830;BME280;5972;42.134;24.718;2024-01-15T07:01:11;99176.19;;;-1.63;100.00
11830;BME280;5972;42.134;24.718;2024-01-15T07:03:38;99126.94;;;-1.85;100.00
11830;BME280;5972;42.134;24.718;2024-01-15T07:06:05;99174.75;;;-1.41;100.00
11830;BME280;5972;42.134;24.718;2024-01-15T07:08:32;99158.34;;;-1.48;100.00
11830;BME280;5972;42.134;24.718;2024-01-15T07:11:03;99180.28;;;-1.37;100.00
11830;BME280;5972;42.134;24.718;2024-01-15T07:13:31;99167.28;;;-1.39;100.00
11830;BME280;5972;42.134;24.718;2024-01-15T07:15:59;99162.72;;;-1.28;100.00
11830;BME280;5972;42.134;24.718;2024-01-15T07:18:26;99168.81;;;-1.28;100.00
11830;BME280;5972;42.134;24.718;2024-01-15T07:20:53;99160.06;;;-1.28;100.00
11830;BME280;5972;42.134;24.718;2024-01-15T07:23:20;99168.84;;;-1.33;100.00
11830;BME280;5972;42.134;24.718;2024-01-15T07:25:47;99169.06;;;-1.19;100.00
11830;BME280;5972;42.134;24.718;2024-01-15T07:28:14;99169.06;;;-1.19;100.00
11830;BME280;5972;42.134;24.718;2024-01-15T07:30:42;99166.56;;;-1.05;100.00
11830;BME280;5972;42.134;24.718;2024-01-15T07:33:10;99172.19;;;-0.78;100.00
11830;BME280;5972;42.134;24.718;2024-01-15T07:35:38;99155.63;;;-0.65;100.00
11830;BME280;5972;42.134;24.718;2024-01-15T07:38:04;99170.53;;;-0.35;100.00
11830;BME280;5972;42.134;24.718;2024-01-15T07:40:32;99181.25;;;0.08;100.00
11830;BME280;5972;42.134;24.718;2024-01-15T07:42:59;99153.56;;;0.32;100.00
11830;BME280;5972;42.134;24.718;2024-01-15T07:45:26;99162.16;;;1.37;100.00
11830;BME280;5972;42.134;24.718;2024-01-15T07:47:54;99196.69;;;2.20;100.00
11830;BME280;5972;42.134;24.718;2024-01-15T07:50:21;99177.59;;;2.54;100.00
11830;BME280;5972;42.134;24.718;2024-01-15T07:52:48;99187.03;;;2.87;100.00
11830;BME280;5972;42.134;24.718;2024-01-15T07:55:15;99190.75;;;2.50;100.00
11830;BME280;5972;42.134;24.718;2024-01-15T07:57:42;99196.50;;;2.44;100.00
11830;BME280;5972;42.134;24.718;2024-01-15T08:00:10;99203.41;;;2.31;100.00
11830;BME280;5972;42.134;24.718;2024-01-15T08:02:37;99200.25;;;2.29;100.00
11830;BME280;5972;42.134;24.718;2024-01-15T08:05:06;99211.13;;;2.46;100.00
11830;BME280;5972;42.134;24.718;2024-01-15T08:07:33;99209.25;;;3.10;100.00
11830;BME280;5972;42.134;24.718;2024-01-15T08:10:00;99206.34;;;4.35;97.17
11830;BME280;5972;42.134;24.718;2024-01-15T08:12:27;99226.09;;;5.39;84.46
11830;BME280;5972;42.134;24.718;2024-01-15T08:14:54;99227.00;;;5.69;74.69
11830;BME280;5972;42.134;24.718;2024-01-15T08:17:21;99235.63;;;6.17;70.22
11830;BME280;5972;42.134;24.718;2024-01-15T08:19:49;99220.88;;;5.34;71.78
11830;BME280;5972;42.134;24.718;2024-01-15T08:22:18;99226.31;;;4.69;77.67
11830;BME280;5972;42.134;24.718;2024-01-15T08:24:56;99230.94;;;5.02;79.43
11830;BME280;5972;42.134;24.718;2024-01-15T08:27:23;99226.72;;;5.10;78.82
11830;BME280;5972;42.134;24.718;2024-01-15T08:29:50;99240.28;;;5.39;78.20
11830;BME280;5972;42.134;24.718;2024-01-15T08:32:17;99235.06;;;5.60;77.08
11830;BME280;5972;42.134;24.718;2024-01-15T08:34:44;99229.88;;;5.29;78.56
11830;BME280;5972;42.134;24.718;2024-01-15T08:37:12;99228.09;;;4.90;82.47
11830;BME280;5972;42.134;24.718;2024-01-15T08:39:41;99220.09;;;4.42;86.00
11830;BME280;5972;42.134;24.718;2024-01-15T08:42:08;99211.63;;;4.09;92.70
11830;BME280;5972;42.134;24.718;2024-01-15T08:44:36;99199.22;;;3.91;95.64
11830;BME280;5972;42.134;24.718;2024-01-15T08:47:11;99197.72;;;4.38;95.85
11830;BME280;5972;42.134;24.718;2024-01-15T08:49:38;99183.47;;;4.77;90.95
11830;BME280;5972;42.134;24.718;2024-01-15T08:52:06;99186.91;;;4.69;86.69
11830;BME280;5972;42.134;24.718;2024-01-15T08:54:33;99140.47;;;4.26;89.39
11830;BME280;5972;42.134;24.718;2024-01-15T08:57:01;99161.81;;;4.48;89.91
11830;BME280;5972;42.134;24.718;2024-01-15T08:59:28;99157.69;;;4.42;87.72
11830;BME280;5972;42.134;24.718;2024-01-15T09:01:55;99127.16;;;3.95;91.40
11830;BME280;5972;42.134;24.718;2024-01-15T09:04:23;99130.75;;;3.59;97.36
11830;BME280;5972;42.134;24.718;2024-01-15T09:06:50;99152.81;;;3.65;99.38
11830;BME280;5972;42.134;24.718;2024-01-15T09:09:17;99152.47;;;3.35;100.00
11830;BME280;5972;42.134;24.718;2024-01-15T09:11:45;99142.22;;;3.29;100.00
11830;BME280;5972;42.134;24.718;2024-01-15T09:14:13;99150.13;;;3.56;100.00
11830;BME280;5972;42.134;24.718;2024-01-15T09:16:40;99140.84;;;3.62;100.00
11830;BME280;5972;42.134;24.718;2024-01-15T09:19:07;99147.34;;;3.70;100.00
11830;BME280;5972;42.134;24.718;2024-01-15T09:21:34;99151.53;;;3.62;100.00
11830;BME280;5972;42.134;24.718;2024-01-15T09:24:01;99153.34;;;3.75;100.00
11830;BME280;5972;42.134;24.718;2024-01-15T09:26:28;99140.78;;;3.85;100.00
11830;BME280;5972;42.134;24.718;2024-01-15T09:28:55;99135.78;;;3.92;100.00
11830;BME280;5972;42.134;24.718;2024-01-15T09:31:25;99123.84;;;3.89;100.00
11830;BME280;5972;42.134;24.718;2024-01-15T09:33:52;99116.81;;;4.10;100.00
11830;BME280;5972;42.134;24.718;2024-01-15T09:36:21;99132.59;;;4.29;98.56
11830;BME280;5972;42.134;24.718;2024-01-15T09:38:49;99113.13;;;4.54;95.74
11830;BME280;5972;42.134;24.718;2024-01-15T09:41:16;99119.78;;;5.00;92.28
11830;BME280;5972;42.134;24.718;2024-01-15T09:43:44;99089.03;;;4.89;90.05
11830;BME280;5972;42.134;24.718;2024-01-15T09:46:11;99116.91;;;5.14;88.91
11830;BME280;5972;42.134;24.718;2024-01-15T09:48:40;99109.81;;;5.09;87.75
11830;BME280;5972;42.134;24.718;2024-01-15T09:51:07;99121.50;;;4.87;89.35
11830;BME280;5972;42.134;24.718;2024-01-15T09:53:42;99099.13;;;4.83;90.43
11830;BME280;5972;42.134;24.718;2024-01-15T09:56:10;99084.28;;;4.86;90.64
11830;BME280;5972;42.134;24.718;2024-01-15T09:58:38;99079.09;;;4.89;89.88
11830;BME280;5972;42.134;24.718;2024-01-15T10:01:05;99086.94;;;5.03;89.51
11830;BME280;5972;42.134;24.718;2024-01-15T10:03:33;99067.63;;;5.35;88.55
11830;BME280;5972;42.134;24.718;2024-01-15T10:06:01;99075.16;;;6.26;80.12
11830;BME280;5972;42.134;24.718;2024-01-15T10:08:29;99088.22;;;6.37;76.59
11830;BME280;5972;42.134;24.718;2024-01-15T10:10:56;99063.19;;;6.24;78.83
11830;BME280;5972;42.134;24.718;2024-01-15T10:13:23;99075.81;;;6.86;76.24
11830;BME280;5972;42.134;24.718;2024-01-15T10:15:50;99057.75;;;6.74;73.89
11830;BME280;5972;42.134;24.718;2024-01-15T10:18:17;99065.16;;;6.56;74.79
11830;BME280;5972;42.134;24.718;2024-01-15T10:20:45;99067.44;;;6.25;77.21
11830;BME280;5972;42.134;24.718;2024-01-15T10:23:14;99053.25;;;5.95;79.72
11830;BME280;5972;42.134;24.718;2024-01-15T10:25:41;99015.97;;;5.56;83.49
11830;BME280;5972;42.134;24.718;2024-01-15T10:28:08;99040.84;;;5.73;85.66
11830;BME280;5972;42.134;24.718;2024-01-15T10:30:36;99015.59;;;5.66;85.13
11830;BME280;5972;42.134;24.718;2024-01-15T10:33:04;99013.53;;;5.71;85.50
11830;BME280;5972;42.134;24.718;2024-01-15T10:35:32;98964.03;;;5.90;86.21
11830;BME280;5972;42.134;24.718;2024-01-15T10:37:59;98985.44;;;7.50;76.75
11830;BME280;5972;42.134;24.718;2024-01-15T10:40:28;98977.81;;;8.69;68.79
11830;BME280;5972;42.134;24.718;2024-01-15T10:42:55;98933.97;;;8.04;67.10
11830;BME280;5972;42.134;24.718;2024-01-15T10:45:23;98928.66;;;7.80;66.09
11830;BME280;5972;42.134;24.718;2024-01-15T10:47:50;98952.50;;;8.06;65.71
11830;BME280;5972;42.134;24.718;2024-01-15T10:50:17;98943.28;;;8.74;64.79
11830;BME280;5972;42.134;24.718;2024-01-15T10:52:44;98975.59;;;9.81;61.18
11830;BME280;5972;42.134;24.718;2024-01-15T10:55:11;98928.72;;;10.08;56.92
11830;BME280;5972;42.134;24.718;2024-01-15T10:57:40;98971.84;;;10.20;55.12
11830;BME280;5972;42.134;24.718;2024-01-15T11:00:07;98951.78;;;9.36;56.07
11830;BME280;5972;42.134;24.718;2024-01-15T11:02:40;98968.13;;;8.52;59.62
11830;BME280;5972;42.134;24.718;2024-01-15T11:05:08;98963.53;;;8.96;59.60
11830;BME280;5972;42.134;24.718;2024-01-15T11:07:34;98959.25;;;8.52;59.82
11830;BME280;5972;42.134;24.718;2024-01-15T11:10:03;98933.91;;;8.84;59.08
11830;BME280;5972;42.134;24.718;2024-01-15T11:12:31;98913.88;;;8.42;58.75
11830;BME280;5972;42.134;24.718;2024-01-15T11:15:03;98903.56;;;9.18;55.31
11830;BME280;5972;42.134;24.718;2024-01-15T11:20:28;98889.19;;;9.30;52.43
11830;BME280;5972;42.134;24.718;2024-01-15T11:22:56;98889.72;;;10.09;51.55
11830;BME280;5972;42.134;24.718;2024-01-15T11:25:34;98861.00;;;8.96;53.22
11830;BME280;5972;42.134;24.718;2024-01-15T11:28:04;98889.31;;;9.37;50.25
11830;BME280;5972;42.134;24.718;2024-01-15T11:30:33;98890.66;;;8.25;51.13
11830;BME280;5972;42.134;24.718;2024-01-15T11:33:03;98882.91;;;8.63;51.61
11830;BME280;5972;42.134;24.718;2024-01-15T11:35:50;98882.03;;;8.19;51.35
11830;BME280;5972;42.134;24.718;2024-01-15T11:38:26;98853.19;;;7.92;52.89
11830;BME280;5972;42.134;24.718;2024-01-15T11:40:54;98879.88;;;8.37;53.15
11830;BME280;5972;42.134;24.718;2024-01-15T11:43:21;98834.63;;;8.90;50.92
11830;BME280;5972;42.134;24.718;2024-01-15T11:45:52;98887.44;;;9.06;49.77
11830;BME280;5972;42.134;24.718;2024-01-15T11:48:20;98871.66;;;9.08;50.20
11830;BME280;5972;42.134;24.718;2024-01-15T11:50:50;98849.94;;;9.01;50.03
11830;BME280;5972;42.134;24.718;2024-01-15T11:53:30;98862.19;;;8.67;50.19
11830;BME280;5972;42.134;24.718;2024-01-15T11:56:02;98861.72;;;7.42;52.58
11830;BME280;5972;42.134;24.718;2024-01-15T11:58:30;98865.88;;;7.91;52.62
11830;BME280;5972;42.134;24.718;2024-01-15T12:00:58;98844.91;;;7.33;53.53
11830;BME280;5972;42.134;24.718;2024-01-15T12:03:25;98838.00;;;7.72;53.10
11830;BME280;5972;42.134;24.718;2024-01-15T12:05:53;98841.53;;;7.88;53.01
11830;BME280;5972;42.134;24.718;2024-01-15T12:08:22;98851.88;;;7.34;54.93
11830;BME280;5972;42.134;24.718;2024-01-15T12:10:49;98820.47;;;7.14;55.05
11830;BME280;5972;42.134;24.718;2024-01-15T12:13:17;98854.50;;;7.70;55.04
11830;BME280;5972;42.134;24.718;2024-01-15T12:15:45;98870.25;;;7.44;54.08
11830;BME280;5972;42.134;24.718;2024-01-15T12:18:16;98826.00;;;7.17;53.87
11830;BME280;5972;42.134;24.718;2024-01-15T12:20:46;98864.22;;;7.23;54.87
11830;BME280;5972;42.134;24.718;2024-01-15T12:23:13;98846.28;;;6.90;55.88
11830;BME280;5972;42.134;24.718;2024-01-15T12:25:41;98839.53;;;7.08;55.51
11830;BME280;5972;42.134;24.718;2024-01-15T12:28:08;98834.25;;;6.76;55.80
11830;BME280;5972;42.134;24.718;2024-01-15T12:30:35;98832.13;;;6.69;56.07
11830;BME280;5972;42.134;24.718;2024-01-15T12:33:03;98817.25;;;6.72;56.90
11830;BME280;5972;42.134;24.718;2024-01-15T12:35:33;98824.06;;;6.81;56.88
11830;BME280;5972;42.134;24.718;2024-01-15T12:38:01;98836.06;;;7.08;56.26
11830;BME280;5972;42.134;24.718;2024-01-15T12:40:30;98837.97;;;7.20;56.19
11830;BME280;5972;42.134;24.718;2024-01-15T12:42:57;98833.59;;;7.27;56.54
11830;BME280;5972;42.134;24.718;2024-01-15T12:45:24;98835.97;;;7.17;57.23
11830;BME280;5972;42.134;24.718;2024-01-15T12:47:52;98821.50;;;6.85;58.54
11830;BME280;5972;42.134;24.718;2024-01-15T12:50:24;98816.22;;;6.76;60.20
11830;BME280;5972;42.134;24.718;2024-01-15T12:52:52;98824.84;;;6.69;61.23
11830;BME280;5972;42.134;24.718;2024-01-15T12:55:20;98789.31;;;6.40;61.12
11830;BME280;5972;42.134;24.718;2024-01-15T12:57:47;98823.63;;;6.67;61.76
11830;BME280;5972;42.134;24.718;2024-01-15T13:00:15;98817.63;;;6.37;63.13
11830;BME280;5972;42.134;24.718;2024-01-15T13:02:42;98808.16;;;6.64;62.33